sensor_id;sensor_type;location;lat;lon;timestamp;temperature;humidity
15199;DHT22;7700;48.654;9.070;2024-03-08T00:01:06;2.60;99.90
15199;DHT22;7700;48.654;9.070;2024-03-08T00:03:32;2.60;99.90
15199;DHT22;7700;48.654;9.070;2024-03-08T00:05:58;2.60;99.90
15199;DHT22;7700;48.654;9.070;2024-03-08T00:08:23;2.60;99.90
15199;DHT22;7700;48.654;9.070;2024-03-08T00:10:50;2.60;99.90
15199;DHT22;7700;48.654;9.070;2024-03-08T00:13:15;2.60;99.90
15199;DHT22;7700;48.654;9.070;2024-03-08T00:15:41;2.50;99.90
15199;DHT22;7700;48.654;9.070;2024-03-08T00:18:07;2.50;99.90
15199;DHT22;7700;48.654;9.070;2024-03-08T00:20:32;2.40;99.90
15199;DHT22;7700;48.654;9.070;2024-03-08T00:22:58;2.40;99.90
15199;DHT22;7700;48.654;9.070;2024-03-08T00:25:24;2.40;99.90
15199;DHT22;7700;48.654;9.070;2024-03-08T00:27:49;2.30;99.90
15199;DHT22;7700;48.654;9.070;2024-03-08T00:30:15;2.30;99.90
15199;DHT22;7700;48.654;9.070;2024-03-08T00:32:41;2.30;99.90
15199;DHT22;7700;48.654;9.070;2024-03-08T00:35:06;2.20;99.90
15199;DHT22;7700;48.654;9.070;2024-03-08T00:37:32;2.20;99.90
15199;DHT22;7700;48.654;9.070;2024-03-08T00:39:59;2.20;99.90
15199;DHT22;7700;48.654;9.070;2024-03-08T00:42:25;2.10;99.90
15199;DHT22;7700;48.654;9.070;2024-03-08T00:44:51;2.10;99.90
15199;DHT22;7700;48.654;9.070;2024-03-08T00:47:17;2.10;99.90
15199;DHT22;7700;48.654;9.070;2024-03-08T00:49:42;2.10;99.90
15199;DHT22;7700;48.654;9.070;2024-03-08T00:52:08;2.10;99.90
15199;DHT22;7700;48.654;9.070;2024-03-08T00:54:34;2.10;99.90
15199;DHT22;7700;48.654;9.070;2024-03-08T00:57:01;2.10;99.90
15199;DHT22;7700;48.654;9.070;2024-03-08T00:59:28;2.10;99.90
15199;DHT22;7700;48.654;9.070;2024-03-08T01:01:54;2.00;99.90
15199;DHT22;7700;48.654;9.070;2024-03-08T01:04:20;2.00;99.90
15199;DHT22;7700;48.654;9.070;2024-03-08T01:06:46;1.90;99.90
15199;DHT22;7700;48.654;9.070;2024-03-08T01:09:13;1.90;99.90
15199;DHT22;7700;48.654;9.070;2024-03-08T01:11:38;1.90;99.90
15199;DHT22;7700;48.654;9.070;2024-03-08T01:14:04;1.90;99.90
15199;DHT22;7700;48.654;9.070;2024-03-08T01:16:30;1.80;99.90
15199;DHT22;7700;48.654;9.070;2024-03-08T01:18:55;1.90;99.90
15199;DHT22;7700;48.654;9.070;2024-03-08T01:21:21;1.80;99.90
15199;DHT22;7700;48.654;9.070;2024-03-08T01:23:47;1.80;99.90
15199;DHT22;7700;48.654;9.070;2024-03-08T01:26:13;1.80;99.90
15199;DHT22;7700;48.654;9.070;2024-03-08T01:28:40;1.70;99.90
15199;DHT22;7700;48.654;9.070;2024-03-08T01:31:05;1.70;99.90
15199;DHT22;7700;48.654;9.070;2024-03-08T01:33:31;1.70;99.90
15199;DHT22;7700;48.654;9.070;2024-03-08T01:35:57;1.70;99.90
15199;DHT22;7700;48.654;9.070;2024-03-08T01:38:23;1.60;99.90
15199;DHT22;7700;48.654;9.070;2024-03-08T01:40:49;1.60;99.90
15199;DHT22;7700;48.654;9.070;2024-03-08T01:43:19;1.60;99.90
15199;DHT22;7700;48.654;9.070;2024-03-08T01:45:45;1.60;99.90
15199;DHT22;7700;48.654;9.070;2024-03-08T01:48:10;1.60;99.90
15199;DHT22;7700;48.654;9.070;2024-03-08T01:50:38;1.60;99.90
15199;DHT22;7700;48.654;9.070;2024-03-08T01:53:05;1.50;99.90
15199;DHT22;7700;48.654;9.070;2024-03-08T01:55:31;1.50;99.90
15199;DHT22;7700;48.654;9.070;2024-03-08T01:57:57;1.50;99.90
15199;DHT22;7700;48.654;9.070;2024-03-08T02:00:24;1.50;99.90
15199;DHT22;7700;48.654;9.070;2024-03-08T02:02:54;1.40;99.90
15199;DHT22;7700;48.654;9.070;2024-03-08T02:05:20;1.40;99.90
15199;DHT22;7700;48.654;9.070;2024-03-08T02:07:46;1.40;99.90
15199;DHT22;7700;48.654;9.070;2024-03-08T02:10:12;1.40;99.90
15199;DHT22;7700;48.654;9.070;2024-03-08T02:12:38;1.30;99.90
15199;DHT22;7700;48.654;9.070;2024-03-08T02:15:04;1.30;99.90
15199;DHT22;7700;48.654;9.070;2024-03-08T02:17:32;1.30;99.90
15199;DHT22;7700;48.654;9.070;2024-03-08T02:19:59;1.20;99.90
15199;DHT22;7700;48.654;9.070;2024-03-08T02:22:29;1.20;99.90
15199;DHT22;7700;48.654;9.070;2024-03-08T02:24:55;1.20;99.90
15199;DHT22;7700;48.654;9.070;2024-03-08T02:27:24;1.20;99.90
15199;DHT22;7700;48.654;9.070;2024-03-08T02:29:56;1.20;99.90
15199;DHT22;7700;48.654;9.070;2024-03-08T02:32:23;1.20;99.90
15199;DHT22;7700;48.654;9.070;2024-03-08T02:34:49;1.10;99.90
15199;DHT22;7700;48.654;9.070;2024-03-08T02:37:17;1.10;99.90
15199;DHT22;7700;48.654;9.070;2024-03-08T02:39:43;1.10;99.90
15199;DHT22;7700;48.654;9.070;2024-03-08T02:42:09;1.10;99.90
15199;DHT22;7700;48.654;9.070;2024-03-08T02:44:34;1.10;99.90
15199;DHT22;7700;48.654;9.070;2024-03-08T02:47:00;1.00;99.90
15199;DHT22;7700;48.654;9.070;2024-03-08T02:49:29;1.00;99.90
15199;DHT22;7700;48.654;9.070;2024-03-08T02:51:54;1.00;99.90
15199;DHT22;7700;48.654;9.070;2024-03-08T02:54:22;0.90;99.90
15199;DHT22;7700;48.654;9.070;2024-03-08T02:56:48;0.90;99.90
15199;DHT22;7700;48.654;9.070;2024-03-08T02:59:15;0.90;99.90
15199;DHT22;7700;48.654;9.070;2024-03-08T03:01:43;0.90;99.90
15199;DHT22;7700;48.654;9.070;2024-03-08T03:04:09;0.80;99.90
15199;DHT22;7700;48.654;9.070;2024-03-08T03:06:34;0.80;99.90
15199;DHT22;7700;48.654;9.070;2024-03-08T03:09:01;0.80;99.90
15199;DHT22;7700;48.654;9.070;2024-03-08T03:11:27;0.80;99.90
15199;DHT22;7700;48.654;9.070;2024-03-08T03:13:52;0.80;99.90
15199;DHT22;7700;48.654;9.070;2024-03-08T03:16:19;0.80;99.90
15199;DHT22;7700;48.654;9.070;2024-03-08T03:18:46;0.80;99.90
15199;DHT22;7700;48.654;9.070;2024-03-08T03:21:12;0.80;99.90
15199;DHT22;7700;48.654;9.070;2024-03-08T03:23:39;0.80;99.90
15199;DHT22;7700;48.654;9.070;2024-03-08T03:26:08;0.70;99.90
15199;DHT22;7700;48.654;9.070;2024-03-08T03:28:34;0.70;99.90
15199;DHT22;7700;48.654;9.070;2024-03-08T03:30:59;0.70;99.90
15199;DHT22;7700;48.654;9.070;2024-03-08T03:33:25;0.60;99.90
15199;DHT22;7700;48.654;9.070;2024-03-08T03:35:51;0.60;99.90
15199;DHT22;7700;48.654;9.070;2024-03-08T03:38:20;0.60;99.90
15199;DHT22;7700;48.654;9.070;2024-03-08T03:40:48;0.60;99.90
15199;DHT22;7700;48.654;9.070;2024-03-08T03:43:17;0.60;99.90
15199;DHT22;7700;48.654;9.070;2024-03-08T03:45:43;0.50;99.90
15199;DHT22;7700;48.654;9.070;2024-03-08T03:48:09;0.50;99.90
15199;DHT22;7700;48.654;9.070;2024-03-08T03:50:35;0.50;99.90
15199;DHT22;7700;48.654;9.070;2024-03-08T03:53:04;0.50;99.90
15199;DHT22;7700;48.654;9.070;2024-03-08T03:55:33;0.40;99.90
15199;DHT22;7700;48.654;9.070;2024-03-08T03:57:59;0.40;99.90
15199;DHT22;7700;48.654;9.070;2024-03-08T04:00:27;0.40;99.90
15199;DHT22;7700;48.654;9.070;2024-03-08T04:02:53;0.40;99.90
15199;DHT22;7700;48.654;9.070;2024-03-08T04:05:18;0.40;99.90
15199;DHT22;7700;48.654;9.070;2024-03-08T04:07:44;0.40;99.90
15199;DHT22;7700;48.654;9.070;2024-03-08T04:10:11;0.40;99.90
15199;DHT22;7700;48.654;9.070;2024-03-08T04:12:37;0.40;99.90
15199;DHT22;7700;48.654;9.070;2024-03-08T04:15:03;0.40;99.90
15199;DHT22;7700;48.654;9.070;2024-03-08T04:17:31;0.40;99.90
15199;DHT22;7700;48.654;9.070;2024-03-08T04:19:56;0.40;99.90
15199;DHT22;7700;48.654;9.070;2024-03-08T04:22:22;0.30;99.90
15199;DHT22;7700;48.654;9.070;2024-03-08T04:24:48;0.30;99.90
15199;DHT22;7700;48.654;9.070;2024-03-08T04:27:13;0.30;99.90
15199;DHT22;7700;48.654;9.070;2024-03-08T04:29:42;0.30;99.90
15199;DHT22;7700;48.654;9.070;2024-03-08T04:32:08;0.30;99.90
15199;DHT22;7700;48.654;9.070;2024-03-08T04:34:34;0.20;99.90
15199;DHT22;7700;48.654;9.070;2024-03-08T04:37:02;0.30;99.90
15199;DHT22;7700;48.654;9.070;2024-03-08T04:39:30;0.30;99.90
15199;DHT22;7700;48.654;9.070;2024-03-08T04:41:58;0.20;99.90
15199;DHT22;7700;48.654;9.070;2024-03-08T04:44:24;0.20;99.90
15199;DHT22;7700;48.654;9.070;2024-03-08T04:46:50;0.20;99.90
15199;DHT22;7700;48.654;9.070;2024-03-08T04:49:16;0.20;99.90
15199;DHT22;7700;48.654;9.070;2024-03-08T04:51:42;0.20;99.90
15199;DHT22;7700;48.654;9.070;2024-03-08T04:54:07;0.10;99.90
15199;DHT22;7700;48.654;9.070;2024-03-08T04:56:33;0.10;99.90
15199;DHT22;7700;48.654;9.070;2024-03-08T04:58:59;0.10;99.90
15199;DHT22;7700;48.654;9.070;2024-03-08T05:01:24;0.20;99.90
15199;DHT22;7700;48.654;9.070;2024-03-08T05:03:50;0.10;99.90
15199;DHT22;7700;48.654;9.070;2024-03-08T05:06:16;0.10;99.90
15199;DHT22;7700;48.654;9.070;2024-03-08T05:08:42;0.10;99.90
15199;DHT22;7700;48.654;9.070;2024-03-08T05:11:08;0.10;99.90
15199;DHT22;7700;48.654;9.070;2024-03-08T05:13:33;0.10;99.90
15199;DHT22;7700;48.654;9.070;2024-03-08T05:16:00;0.10;99.90
15199;DHT22;7700;48.654;9.070;2024-03-08T05:18:25;0.10;99.90
15199;DHT22;7700;48.654;9.070;2024-03-08T05:20:53;0.10;99.90
15199;DHT22;7700;48.654;9.070;2024-03-08T05:23:19;0.10;99.90
15199;DHT22;7700;48.654;9.070;2024-03-08T05:25:46;0.10;99.90
15199;DHT22;7700;48.654;9.070;2024-03-08T05:28:15;0.10;99.90
15199;DHT22;7700;48.654;9.070;2024-03-08T05:30:40;0.00;99.90
15199;DHT22;7700;48.654;9.070;2024-03-08T05:33:06;0.00;99.90
15199;DHT22;7700;48.654;9.070;2024-03-08T05:35:36;0.00;99.90
15199;DHT22;7700;48.654;9.070;2024-03-08T05:38:01;0.00;99.90
15199;DHT22;7700;48.654;9.070;2024-03-08T05:40:27;-0.10;99.90
15199;DHT22;7700;48.654;9.070;2024-03-08T05:42:58;-0.10;99.90
15199;DHT22;7700;48.654;9.070;2024-03-08T05:45:25;-0.20;99.90
15199;DHT22;7700;48.654;9.070;2024-03-08T05:47:51;-0.20;99.90
15199;DHT22;7700;48.654;9.070;2024-03-08T05:50:17;-0.20;99.90
15199;DHT22;7700;48.654;9.070;2024-03-08T05:52:43;-0.30;99.90
15199;DHT22;7700;48.654;9.070;2024-03-08T05:55:08;-0.30;99.90
15199;DHT22;7700;48.654;9.070;2024-03-08T05:57:35;-0.30;99.90
15199;DHT22;7700;48.654;9.070;2024-03-08T06:00:05;-0.20;99.90
15199;DHT22;7700;48.654;9.070;2024-03-08T06:02:31;-0.30;99.90
15199;DHT22;7700;48.654;9.070;2024-03-08T06:04:56;-0.30;99.90
15199;DHT22;7700;48.654;9.070;2024-03-08T06:07:22;-0.30;99.90
15199;DHT22;7700;48.654;9.070;2024-03-08T06:09:47;-0.20;99.90
15199;DHT22;7700;48.654;9.070;2024-03-08T06:12:13;-0.20;99.90
15199;DHT22;7700;48.654;9.070;2024-03-08T06:14:44;-0.10;99.90
15199;DHT22;7700;48.654;9.070;2024-03-08T06:17:10;-0.10;99.90
15199;DHT22;7700;48.654;9.070;2024-03-08T06:19:36;0.00;99.90
15199;DHT22;7700;48.654;9.070;2024-03-08T06:22:02;0.10;99.90
15199;DHT22;7700;48.654;9.070;2024-03-08T06:24:31;0.10;99.90
15199;DHT22;7700;48.654;9.070;2024-03-08T06:26:57;0.20;99.90
15199;DHT22;7700;48.654;9.070;2024-03-08T06:29:23;0.30;99.90
15199;DHT22;7700;48.654;9.070;2024-03-08T06:31:49;0.30;99.90
15199;DHT22;7700;48.654;9.070;2024-03-08T06:34:15;0.40;99.90
15199;DHT22;7700;48.654;9.070;2024-03-08T06:36:41;0.50;99.90
15199;DHT22;7700;48.654;9.070;2024-03-08T06:39:06;0.50;99.90
15199;DHT22;7700;48.654;9.070;2024-03-08T06:41:36;0.60;99.90
15199;DHT22;7700;48.654;9.070;2024-03-08T06:44:01;0.60;99.90
15199;DHT22;7700;48.654;9.070;2024-03-08T06:46:27;0.70;99.90
15199;DHT22;7700;48.654;9.070;2024-03-08T06:48:53;0.70;99.90
15199;DHT22;7700;48.654;9.070;2024-03-08T06:51:19;0.80;99.90
15199;DHT22;7700;48.654;9.070;2024-03-08T06:53:44;0.80;99.90
15199;DHT22;7700;48.654;9.070;2024-03-08T06:56:10;0.90;99.90
15199;DHT22;7700;48.654;9.070;2024-03-08T06:58:36;1.00;99.90
15199;DHT22;7700;48.654;9.070;2024-03-08T07:01:01;1.10;99.90
15199;DHT22;7700;48.654;9.070;2024-03-08T07:03:29;1.10;99.90
15199;DHT22;7700;48.654;9.070;2024-03-08T07:05:56;1.10;99.90
15199;DHT22;7700;48.654;9.070;2024-03-08T07:08:23;1.20;99.90
15199;DHT22;7700;48.654;9.070;2024-03-08T07:10:49;1.60;99.90
15199;DHT22;7700;48.654;9.070;2024-03-08T07:13:15;1.90;99.90
15199;DHT22;7700;48.654;9.070;2024-03-08T07:15:40;1.80;99.90
15199;DHT22;7700;48.654;9.070;2024-03-08T07:18:07;1.80;99.90
15199;DHT22;7700;48.654;9.070;2024-03-08T07:20:34;1.80;99.90
15199;DHT22;7700;48.654;9.070;2024-03-08T07:23:02;1.80;99.90
15199;DHT22;7700;48.654;9.070;2024-03-08T07:25:28;1.80;99.90
15199;DHT22;7700;48.654;9.070;2024-03-08T07:27:55;1.80;99.90
15199;DHT22;7700;48.654;9.070;2024-03-08T07:30:22;1.90;99.90
15199;DHT22;7700;48.654;9.070;2024-03-08T07:33:07;1.90;99.90
15199;DHT22;7700;48.654;9.070;2024-03-08T07:35:33;1.90;99.90
15199;DHT22;7700;48.654;9.070;2024-03-08T07:38:03;2.00;99.90
15199;DHT22;7700;48.654;9.070;2024-03-08T07:40:29;2.00;99.90
15199;DHT22;7700;48.654;9.070;2024-03-08T07:42:55;2.00;99.90
15199;DHT22;7700;48.654;9.070;2024-03-08T07:45:21;2.10;99.90
15199;DHT22;7700;48.654;9.070;2024-03-08T07:47:48;2.10;99.90
15199;DHT22;7700;48.654;9.070;2024-03-08T07:50:14;2.10;99.90
15199;DHT22;7700;48.654;9.070;2024-03-08T07:52:42;2.10;99.90
15199;DHT22;7700;48.654;9.070;2024-03-08T07:55:09;2.20;99.90
15199;DHT22;7700;48.654;9.070;2024-03-08T07:57:35;2.20;99.90
15199;DHT22;7700;48.654;9.070;2024-03-08T08:00:04;2.10;99.90
15199;DHT22;7700;48.654;9.070;2024-03-08T08:02:32;2.20;99.90
15199;DHT22;7700;48.654;9.070;2024-03-08T08:04:58;2.20;99.90
15199;DHT22;7700;48.654;9.070;2024-03-08T08:07:24;2.30;99.90
15199;DHT22;7700;48.654;9.070;2024-03-08T08:09:50;2.30;99.90
15199;DHT22;7700;48.654;9.070;2024-03-08T08:12:15;2.40;99.90
15199;DHT22;7700;48.654;9.070;2024-03-08T08:14:41;2.50;99.90
15199;DHT22;7700;48.654;9.070;2024-03-08T08:17:07;2.60;99.90
15199;DHT22;7700;48.654;9.070;2024-03-08T08:19:34;2.70;99.90
15199;DHT22;7700;48.654;9.070;2024-03-08T08:22:03;2.80;99.90
15199;DHT22;7700;48.654;9.070;2024-03-08T08:24:28;2.90;99.90
15199;DHT22;7700;48.654;9.070;2024-03-08T08:26:54;2.90;99.90
15199;DHT22;7700;48.654;9.070;2024-03-08T08:29:19;3.00;99.90
15199;DHT22;7700;48.654;9.070;2024-03-08T08:31:46;2.90;99.90
15199;DHT22;7700;48.654;9.070;2024-03-08T08:34:12;3.00;99.90
15199;DHT22;7700;48.654;9.070;2024-03-08T08:36:39;3.00;99.90
15199;DHT22;7700;48.654;9.070;2024-03-08T08:39:05;3.00;99.90
15199;DHT22;7700;48.654;9.070;2024-03-08T08:41:36;3.10;99.90
15199;DHT22;7700;48.654;9.070;2024-03-08T08:44:02;3.20;99.90
15199;DHT22;7700;48.654;9.070;2024-03-08T08:46:27;3.20;99.90
15199;DHT22;7700;48.654;9.070;2024-03-08T08:48:54;3.20;99.90
15199;DHT22;7700;48.654;9.070;2024-03-08T08:51:19;3.20;99.90
15199;DHT22;7700;48.654;9.070;2024-03-08T08:53:45;3.30;99.90
15199;DHT22;7700;48.654;9.070;2024-03-08T08:56:13;3.30;99.90
15199;DHT22;7700;48.654;9.070;2024-03-08T08:58:39;3.30;99.90
15199;DHT22;7700;48.654;9.070;2024-03-08T09:01:06;3.40;99.90
15199;DHT22;7700;48.654;9.070;2024-03-08T09:03:33;3.40;99.90
15199;DHT22;7700;48.654;9.070;2024-03-08T09:06:00;3.40;99.90
15199;DHT22;7700;48.654;9.070;2024-03-08T09:08:25;3.50;99.90
15199;DHT22;7700;48.654;9.070;2024-03-08T09:10:51;3.60;99.90
15199;DHT22;7700;48.654;9.070;2024-03-08T09:13:16;3.60;99.90
15199;DHT22;7700;48.654;9.070;2024-03-08T09:15:43;3.60;99.90
15199;DHT22;7700;48.654;9.070;2024-03-08T09:18:09;3.60;99.90
15199;DHT22;7700;48.654;9.070;2024-03-08T09:20:35;3.60;99.90
15199;DHT22;7700;48.654;9.070;2024-03-08T09:23:02;3.70;99.90
15199;DHT22;7700;48.654;9.070;2024-03-08T09:25:29;3.70;99.90
15199;DHT22;7700;48.654;9.070;2024-03-08T09:27:55;3.70;99.90
15199;DHT22;7700;48.654;9.070;2024-03-08T09:30:20;3.80;99.90
15199;DHT22;7700;48.654;9.070;2024-03-08T09:32:47;3.80;99.90
15199;DHT22;7700;48.654;9.070;2024-03-08T09:35:13;3.90;99.90
15199;DHT22;7700;48.654;9.070;2024-03-08T09:37:38;4.00;99.90
15199;DHT22;7700;48.654;9.070;2024-03-08T09:40:04;4.10;99.90
15199;DHT22;7700;48.654;9.070;2024-03-08T09:42:35;4.10;99.90
15199;DHT22;7700;48.654;9.070;2024-03-08T09:45:08;4.00;99.90
15199;DHT22;7700;48.654;9.070;2024-03-08T09:47:36;4.10;99.90
15199;DHT22;7700;48.654;9.070;2024-03-08T09:50:05;4.10;99.90
15199;DHT22;7700;48.654;9.070;2024-03-08T09:52:40;4.20;99.90
15199;DHT22;7700;48.654;9.070;2024-03-08T09:55:06;4.30;99.90
15199;DHT22;7700;48.654;9.070;2024-03-08T09:57:36;4.30;99.90
15199;DHT22;7700;48.654;9.070;2024-03-08T10:03:30;4.20;99.90
15199;DHT22;7700;48.654;9.070;2024-03-08T10:05:58;4.20;99.90
15199;DHT22;7700;48.654;9.070;2024-03-08T10:08:29;4.30;99.90
15199;DHT22;7700;48.654;9.070;2024-03-08T10:10:55;4.40;99.90
15199;DHT22;7700;48.654;9.070;2024-03-08T10:13:24;4.50;99.90
15199;DHT22;7700;48.654;9.070;2024-03-08T10:15:52;4.50;99.90
15199;DHT22;7700;48.654;9.070;2024-03-08T10:18:18;4.50;99.90
15199;DHT22;7700;48.654;9.070;2024-03-08T10:20:43;4.50;99.90
15199;DHT22;7700;48.654;9.070;2024-03-08T10:23:09;4.60;99.90
15199;DHT22;7700;48.654;9.070;2024-03-08T10:25:36;4.70;99.90
15199;DHT22;7700;48.654;9.070;2024-03-08T10:28:04;4.70;99.90
15199;DHT22;7700;48.654;9.070;2024-03-08T10:30:30;4.90;99.90
15199;DHT22;7700;48.654;9.070;2024-03-08T10:32:56;4.90;99.90
15199;DHT22;7700;48.654;9.070;2024-03-08T10:35:22;5.00;99.90
15199;DHT22;7700;48.654;9.070;2024-03-08T10:37:50;5.00;99.90
15199;DHT22;7700;48.654;9.070;2024-03-08T10:40:24;5.20;99.90
15199;DHT22;7700;48.654;9.070;2024-03-08T10:42:54;5.40;99.90
15199;DHT22;7700;48.654;9.070;2024-03-08T10:45:40;5.40;99.90
15199;DHT22;7700;48.654;9.070;2024-03-08T10:48:29;5.60;99.90
15199;DHT22;7700;48.654;9.070;2024-03-08T10:50:59;5.60;99.90
15199;DHT22;7700;48.654;9.070;2024-03-08T10:53:27;5.70;99.90
15199;DHT22;7700;48.654;9.070;2024-03-08T10:55:53;5.70;99.90
15199;DHT22;7700;48.654;9.070;2024-03-08T10:58:22;5.60;99.90
15199;DHT22;7700;48.654;9.070;2024-03-08T11:00:55;5.60;99.90
15199;DHT22;7700;48.654;9.070;2024-03-08T11:03:53;5.70;99.90
15199;DHT22;7700;48.654;9.070;2024-03-08T11:06:30;5.80;99.90
15199;DHT22;7700;48.654;9.070;2024-03-08T11:08:56;6.00;99.90
15199;DHT22;7700;48.654;9.070;2024-03-08T11:11:32;6.10;99.90
15199;DHT22;7700;48.654;9.070;2024-03-08T11:14:00;6.20;99.90
15199;DHT22;7700;48.654;9.070;2024-03-08T11:21:36;6.60;99.90
15199;DHT22;7700;48.654;9.070;2024-03-08T11:24:10;6.90;99.90
15199;DHT22;7700;48.654;9.070;2024-03-08T11:26:37;7.20;99.90
15199;DHT22;7700;48.654;9.070;2024-03-08T11:34:35;9.00;99.90
15199;DHT22;7700;48.654;9.070;2024-03-08T11:37:03;8.90;99.90
15199;DHT22;7700;48.654;9.070;2024-03-08T11:39:29;8.90;99.90
15199;DHT22;7700;48.654;9.070;2024-03-08T11:41:56;9.10;99.90
15199;DHT22;7700;48.654;9.070;2024-03-08T11:44:21;9.60;99.90
15199;DHT22;7700;48.654;9.070;2024-03-08T11:46:47;9.80;99.90
15199;DHT22;7700;48.654;9.070;2024-03-08T11:49:14;9.90;99.90
15199;DHT22;7700;48.654;9.070;2024-03-08T11:51:40;9.90;99.90
15199;DHT22;7700;48.654;9.070;2024-03-08T11:54:10;10.00;99.90
15199;DHT22;7700;48.654;9.070;2024-03-08T11:56:37;9.70;99.90
15199;DHT22;7700;48.654;9.070;2024-03-08T11:59:02;9.90;99.90
15199;DHT22;7700;48.654;9.070;2024-03-08T12:01:28;10.00;99.90
15199;DHT22;7700;48.654;9.070;2024-03-08T12:03:55;10.50;99.90
15199;DHT22;7700;48.654;9.070;2024-03-08T12:06:24;11.20;99.90
15199;DHT22;7700;48.654;9.070;2024-03-08T12:08:50;11.40;99.90
15199;DHT22;7700;48.654;9.070;2024-03-08T12:11:17;11.40;99.90
15199;DHT22;7700;48.654;9.070;2024-03-08T12:13:44;10.70;99.90
15199;DHT22;7700;48.654;9.070;2024-03-08T12:16:12;10.40;99.90
15199;DHT22;7700;48.654;9.070;2024-03-08T12:18:39;10.50;99.90
15199;DHT22;7700;48.654;9.070;2024-03-08T12:23:33;10.90;99.90
15199;DHT22;7700;48.654;9.070;2024-03-08T12:26:16;11.30;99.90
15199;DHT22;7700;48.654;9.070;2024-03-08T12:28:43;11.90;99.90
15199;DHT22;7700;48.654;9.070;2024-03-08T12:31:13;12.30;99.90
15199;DHT22;7700;48.654;9.070;2024-03-08T12:33:55;12.60;99.90
15199;DHT22;7700;48.654;9.070;2024-03-08T12:36:24;12.90;99.90
15199;DHT22;7700;48.654;9.070;2024-03-08T12:38:51;13.00;99.90
15199;DHT22;7700;48.654;9.070;2024-03-08T12:41:18;13.00;99.90
15199;DHT22;7700;48.654;9.070;2024-03-08T12:43:44;13.00;99.90
15199;DHT22;7700;48.654;9.070;2024-03-08T12:46:17;12.90;99.90
15199;DHT22;7700;48.654;9.070;2024-03-08T12:48:45;12.80;99.90
15199;DHT22;7700;48.654;9.070;2024-03-08T12:51:15;12.60;99.90
15199;DHT22;7700;48.654;9.070;2024-03-08T12:53:42;12.50;99.90
15199;DHT22;7700;48.654;9.070;2024-03-08T12:56:10;12.20;99.90
15199;DHT22;7700;48.654;9.070;2024-03-08T12:58:36;12.40;99.90
15199;DHT22;7700;48.654;9.070;2024-03-08T13:01:03;12.40;99.90
15199;DHT22;7700;48.654;9.070;2024-03-08T13:03:35;11.80;99.90
15199;DHT22;7700;48.654;9.070;2024-03-08T13:06:05;11.80;99.90
15199;DHT22;7700;48.654;9.070;2024-03-08T13:08:37;11.30;99.90
15199;DHT22;7700;48.654;9.070;2024-03-08T13:11:06;11.50;99.90
15199;DHT22;7700;48.654;9.070;2024-03-08T13:13:32;11.60;99.90
15199;DHT22;7700;48.654;9.070;2024-03-08T13:16:01;12.00;99.90
15199;DHT22;7700;48.654;9.070;2024-03-08T13:18:26;12.40;99.90
15199;DHT22;7700;48.654;9.070;2024-03-08T13:20:53;12.60;99.90
15199;DHT22;7700;48.654;9.070;2024-03-08T13:23:19;12.80;99.90
15199;DHT22;7700;48.654;9.070;2024-03-08T13:25:45;12.90;99.90
15199;DHT22;7700;48.654;9.070;2024-03-08T13:28:13;12.80;99.90
15199;DHT22;7700;48.654;9.070;2024-03-08T13:30:38;12.40;99.90
15199;DHT22;7700;48.654;9.070;2024-03-08T13:33:04;12.30;99.90
15199;DHT22;7700;48.654;9.070;2024-03-08T13:35:30;12.30;99.90
15199;DHT22;7700;48.654;9.070;2024-03-08T13:37:56;12.00;99.90
15199;DHT22;7700;48.654;9.070;2024-03-08T13:40:22;11.90;99.90
15199;DHT22;7700;48.654;9.070;2024-03-08T13:42:48;12.10;99.90
15199;DHT22;7700;48.654;9.070;2024-03-08T13:45:17;12.20;99.90
15199;DHT22;7700;48.654;9.070;2024-03-08T13:47:50;12.10;99.90
15199;DHT22;7700;48.654;9.070;2024-03-08T13:50:19;11.90;99.90
15199;DHT22;7700;48.654;9.070;2024-03-08T13:52:48;12.10;99.90
15199;DHT22;7700;48.654;9.070;2024-03-08T13:55:17;12.50;99.90
15199;DHT22;7700;48.654;9.070;2024-03-08T13:57:43;12.60;99.90
15199;DHT22;7700;48.654;9.070;2024-03-08T14:00:12;12.50;99.90
15199;DHT22;7700;48.654;9.070;2024-03-08T14:02:38;12.50;99.90
15199;DHT22;7700;48.654;9.070;2024-03-08T14:05:06;12.60;99.90
15199;DHT22;7700;48.654;9.070;2024-03-08T14:07:33;12.60;99.90
15199;DHT22;7700;48.654;9.070;2024-03-08T14:09:59;12.20;99.90
15199;DHT22;7700;48.654;9.070;2024-03-08T14:12:24;11.70;99.90
15199;DHT22;7700;48.654;9.070;2024-03-08T14:14:52;11.30;99.90
15199;DHT22;7700;48.654;9.070;2024-03-08T14:17:18;11.30;99.90
15199;DHT22;7700;48.654;9.070;2024-03-08T14:19:43;11.30;99.90
15199;DHT22;7700;48.654;9.070;2024-03-08T14:22:09;11.60;99.90
15199;DHT22;7700;48.654;9.070;2024-03-08T14:24:40;11.70;99.90
15199;DHT22;7700;48.654;9.070;2024-03-08T14:27:05;11.90;99.90
15199;DHT22;7700;48.654;9.070;2024-03-08T14:29:34;12.00;99.90
15199;DHT22;7700;48.654;9.070;2024-03-08T14:31:59;12.00;99.90
15199;DHT22;7700;48.654;9.070;2024-03-08T14:34:26;11.80;99.90
15199;DHT22;7700;48.654;9.070;2024-03-08T14:36:53;11.80;99.90
15199;DHT22;7700;48.654;9.070;2024-03-08T14:39:19;12.00;99.90
15199;DHT22;7700;48.654;9.070;2024-03-08T14:41:48;12.10;99.90
15199;DHT22;7700;48.654;9.070;2024-03-08T14:44:15;11.60;99.90
15199;DHT22;7700;48.654;9.070;2024-03-08T14:46:41;11.40;99.90
15199;DHT22;7700;48.654;9.070;2024-03-08T14:49:08;11.60;99.90
15199;DHT22;7700;48.654;9.070;2024-03-08T14:51:34;11.30;99.90
15199;DHT22;7700;48.654;9.070;2024-03-08T14:54:00;11.20;99.90
15199;DHT22;7700;48.654;9.070;2024-03-08T14:56:26;11.50;99.90
15199;DHT22;7700;48.654;9.070;2024-03-08T14:58:53;11.70;99.90
15199;DHT22;7700;48.654;9.070;2024-03-08T15:01:19;11.70;99.90
15199;DHT22;7700;48.654;9.070;2024-03-08T15:03:50;11.80;99.90
15199;DHT22;7700;48.654;9.070;2024-03-08T15:06:15;11.90;99.90
15199;DHT22;7700;48.654;9.070;2024-03-08T15:08:47;11.90;99.90
15199;DHT22;7700;48.654;9.070;2024-03-08T15:11:12;11.70;99.90
15199;DHT22;7700;48.654;9.070;2024-03-08T15:13:48;11.30;99.90
15199;DHT22;7700;48.654;9.070;2024-03-08T15:16:16;11.20;99.90
15199;DHT22;7700;48.654;9.070;2024-03-08T15:18:44;11.20;99.90
15199;DHT22;7700;48.654;9.070;2024-03-08T15:21:13;11.10;99.90
15199;DHT22;7700;48.654;9.070;2024-03-08T15:23:43;11.10;99.90
15199;DHT22;7700;48.654;9.070;2024-03-08T15:26:13;11.10;99.90
15199;DHT22;7700;48.654;9.070;2024-03-08T15:28:38;11.00;99.90
15199;DHT22;7700;48.654;9.070;2024-03-08T15:31:05;10.70;99.90
15199;DHT22;7700;48.654;9.070;2024-03-08T15:33:32;10.60;99.90
15199;DHT22;7700;48.654;9.070;2024-03-08T15:35:58;10.60;99.90
15199;DHT22;7700;48.654;9.070;2024-03-08T15:38:29;10.40;99.90
15199;DHT22;7700;48.654;9.070;2024-03-08T15:40:57;10.20;99.90
15199;DHT22;7700;48.654;9.070;2024-03-08T15:43:23;10.30;99.90
15199;DHT22;7700;48.654;9.070;2024-03-08T15:45:50;10.40;99.90
15199;DHT22;7700;48.654;9.070;2024-03-08T15:48:16;10.30;99.90
15199;DHT22;7700;48.654;9.070;2024-03-08T15:50:42;10.30;99.90
15199;DHT22;7700;48.654;9.070;2024-03-08T15:53:07;10.30;99.90
15199;DHT22;7700;48.654;9.070;2024-03-08T15:55:33;10.40;99.90
15199;DHT22;7700;48.654;9.070;2024-03-08T15:58:01;10.40;99.90
15199;DHT22;7700;48.654;9.070;2024-03-08T16:00:27;10.40;99.90
15199;DHT22;7700;48.654;9.070;2024-03-08T16:03:03;10.40;99.90
15199;DHT22;7700;48.654;9.070;2024-03-08T16:05:35;10.30;99.90
15199;DHT22;7700;48.654;9.070;2024-03-08T16:08:00;10.20;99.90
15199;DHT22;7700;48.654;9.070;2024-03-08T16:10:26;10.30;99.90
15199;DHT22;7700;48.654;9.070;2024-03-08T16:12:57;10.30;99.90